createdAt,value
2023-03-16T00:02:21.689Z,98871.81
2023-03-16T00:04:48.400Z,98872.56
2023-03-16T00:07:15.575Z,98867.34
2023-03-16T00:09:42.493Z,98870.28
2023-03-16T00:12:19.933Z,98875.22
2023-03-16T00:14:48.392Z,98874.41
2023-03-16T00:17:20.639Z,98869.47
2023-03-16T00:19:54.982Z,98870.09
2023-03-16T00:22:31.166Z,98873.53
2023-03-16T00:24:58.396Z,98876.28
2023-03-16T00:27:26.388Z,98880.91
2023-03-16T00:29:57.092Z,98879.47
2023-03-16T00:32:26.796Z,98871.53
2023-03-16T00:34:53.474Z,98877.78
2023-03-16T00:37:23.244Z,98869.19
2023-03-16T00:39:51.655Z,98874.25
2023-03-16T00:42:20.112Z,98871.53
2023-03-16T00:44:46.856Z,98868.59
2023-03-16T00:47:14.448Z,98872.97
2023-03-16T00:49:43.300Z,98872.25
2023-03-16T00:52:15.149Z,98861.72
2023-03-16T00:54:46.482Z,98855.25
2023-03-16T00:57:16.435Z,98854.84
2023-03-16T00:59:42.947Z,98847.69
2023-03-16T01:02:11.086Z,98847.81
2023-03-16T01:04:37.914Z,98845.81
2023-03-16T01:07:05.156Z,98851.59
2023-03-16T01:09:37.090Z,98875.84
2023-03-16T01:12:10.744Z,98869.84
2023-03-16T01:14:38.551Z,98870.72
2023-03-16T01:17:08.355Z,98858.91
2023-03-16T01:19:36.936Z,98856.44
2023-03-16T01:22:05.765Z,98848.69
2023-03-16T01:24:34.711Z,98851.00
2023-03-16T01:27:01.633Z,98855.47
2023-03-16T01:29:28.241Z,98849.78
2023-03-16T01:31:57.050Z,98855.59
2023-03-16T01:34:23.551Z,98851.34
2023-03-16T01:36:51.240Z,98847.81
2023-03-16T01:39:25.923Z,98844.22
2023-03-16T01:41:52.476Z,98843.19
2023-03-16T01:44:23.011Z,98838.34
2023-03-16T01:46:50.021Z,98838.94
2023-03-16T01:49:25.166Z,98832.78
2023-03-16T01:52:03.327Z,98821.88
2023-03-16T01:55:00.529Z,98826.03
2023-03-16T01:57:30.736Z,98828.94
2023-03-16T02:00:19.566Z,98822.59
2023-03-16T02:03:08.166Z,98818.44
2023-03-16T02:05:47.124Z,98807.13
2023-03-16T02:08:16.971Z,98810.69
2023-03-16T02:10:45.006Z,98806.38
2023-03-16T02:13:12.564Z,98803.03
2023-03-16T02:15:39.338Z,98803.38
2023-03-16T02:18:07.793Z,98799.00
2023-03-16T02:20:50.039Z,98796.56
2023-03-16T02:23:19.400Z,98794.94
2023-03-16T02:26:28.404Z,98796.78
2023-03-16T02:29:22.523Z,98785.72
2023-03-16T02:31:52.019Z,98779.47
2023-03-16T02:34:19.346Z,98774.44
2023-03-16T02:36:48.720Z,98771.03
2023-03-16T02:39:17.690Z,98777.88
2023-03-16T02:41:46.738Z,98772.44
2023-03-16T02:44:24.986Z,98762.31
2023-03-16T02:47:00.048Z,98753.81
2023-03-16T02:49:34.036Z,98755.34
2023-03-16T02:52:00.528Z,98754.06
2023-03-16T02:54:27.261Z,98746.06
2023-03-16T02:56:53.900Z,98747.22
2023-03-16T02:59:21.510Z,98757.97
2023-03-16T03:01:48.076Z,98751.81
2023-03-16T03:04:15.963Z,98748.41
2023-03-16T03:06:42.905Z,98752.63
2023-03-16T03:09:13.239Z,98758.72
2023-03-16T03:11:41.090Z,98747.94
2023-03-16T03:14:08.016Z,98740.38
2023-03-16T03:16:36.618Z,98739.69
2023-03-16T03:19:03.165Z,98739.94
2023-03-16T03:21:34.664Z,98747.47
2023-03-16T03:24:01.112Z,98735.81
2023-03-16T03:26:27.588Z,98731.78
2023-03-16T03:28:57.365Z,98745.69
2023-03-16T03:31:23.892Z,98735.16
2023-03-16T03:33:51.353Z,98733.53
2023-03-16T03:36:18.246Z,98734.25
2023-03-16T03:38:45.475Z,98731.91
2023-03-16T03:41:12.693Z,98733.22
2023-03-16T03:43:39.566Z,98721.66
2023-03-16T03:46:11.255Z,98737.13
2023-03-16T03:48:37.773Z,98732.75
2023-03-16T03:51:05.522Z,98729.44
2023-03-16T03:53:46.698Z,98727.91
2023-03-16T03:56:21.061Z,98725.69
2023-03-16T03:58:47.697Z,98728.41
2023-03-16T04:01:21.596Z,98718.59
2023-03-16T04:03:48.694Z,98727.41
2023-03-16T04:06:16.004Z,98725.78
2023-03-16T04:08:42.839Z,98728.75
2023-03-16T04:11:12.764Z,98725.69
2023-03-16T04:13:39.648Z,98726.28
2023-03-16T04:16:06.286Z,98729.00
2023-03-16T04:18:40.233Z,98727.13
2023-03-16T04:21:14.334Z,98723.09
2023-03-16T04:23:42.521Z,98715.31
2023-03-16T04:26:09.603Z,98722.75
2023-03-16T04:28:36.569Z,98722.50
2023-03-16T04:31:08.636Z,98720.75
2023-03-16T04:33:40.458Z,98714.38
2023-03-16T04:36:07.507Z,98708.72
2023-03-16T04:38:36.627Z,98709.91
2023-03-16T04:41:05.626Z,98709.69
2023-03-16T04:43:36.289Z,98708.38
2023-03-16T04:46:16.526Z,98699.91
2023-03-16T04:48:43.093Z,98701.91
2023-03-16T04:51:10.600Z,98701.53
2023-03-16T04:53:41.451Z,98700.97
2023-03-16T04:56:19.645Z,98698.00
2023-03-16T04:58:51.289Z,98691.88
2023-03-16T05:01:20.016Z,98693.53
2023-03-16T05:03:49.769Z,98690.94
2023-03-16T05:06:16.902Z,98693.28
2023-03-16T05:08:43.417Z,98681.97
2023-03-16T05:11:10.150Z,98682.56
2023-03-16T05:13:46.256Z,98678.78
2023-03-16T05:16:12.947Z,98685.38
2023-03-16T05:18:41.616Z,98687.63
2023-03-16T05:21:08.326Z,98686.78
2023-03-16T05:23:48.750Z,98682.44
2023-03-16T05:26:15.213Z,98693.03
2023-03-16T05:28:42.511Z,98686.06
2023-03-16T05:31:12.093Z,98695.75
2023-03-16T05:33:44.543Z,98693.16
2023-03-16T05:36:15.729Z,98692.72
2023-03-16T05:38:45.993Z,98684.06
2023-03-16T05:41:21.470Z,98691.16
2023-03-16T05:44:14.070Z,98693.53
2023-03-16T05:47:04.044Z,98682.56
2023-03-16T05:49:32.376Z,98686.66
2023-03-16T05:52:01.842Z,98688.44
2023-03-16T05:54:30.873Z,98690.34
2023-03-16T05:56:57.474Z,98692.72
2023-03-16T05:59:24.235Z,98685.72
2023-03-16T06:01:54.475Z,98689.97
2023-03-16T06:04:21.853Z,98684.56
2023-03-16T06:06:48.759Z,98688.31
2023-03-16T06:09:24.327Z,98683.34
2023-03-16T06:11:51.143Z,98682.16
2023-03-16T06:14:21.138Z,98676.34
2023-03-16T06:16:47.876Z,98680.09
2023-03-16T06:19:15.782Z,98685.91
2023-03-16T06:22:01.164Z,98682.78
2023-03-16T06:24:28.351Z,98678.06
2023-03-16T06:26:54.834Z,98677.50
2023-03-16T06:29:25.669Z,98688.31
2023-03-16T06:31:52.706Z,98678.94
2023-03-16T06:34:20.901Z,98677.94
2023-03-16T06:36:47.406Z,98676.88
2023-03-16T06:39:14.768Z,98676.59
2023-03-16T06:41:45.297Z,98672.53
2023-03-16T06:44:14.377Z,98676.59
2023-03-16T06:46:51.250Z,98681.81
2023-03-16T06:49:17.694Z,98684.25
2023-03-16T06:51:44.224Z,98679.22
2023-03-16T06:54:11.688Z,98678.69
2023-03-16T06:56:39.780Z,98674.94
2023-03-16T06:59:06.985Z,98665.56
2023-03-16T07:01:33.620Z,98662.50
2023-03-16T07:04:01.802Z,98666.75
2023-03-16T07:06:31.253Z,98665.09
2023-03-16T07:08:57.764Z,98668.00
2023-03-16T07:11:24.777Z,98669.41
2023-03-16T07:13:51.757Z,98664.94
2023-03-16T07:16:20.281Z,98657.88
2023-03-16T07:18:47.793Z,98658.66
2023-03-16T07:21:16.319Z,98654.13
2023-03-16T07:23:44.677Z,98656.53
2023-03-16T07:26:13.924Z,98652.41
2023-03-16T07:28:49.779Z,98649.50
2023-03-16T07:31:16.894Z,98649.19
2023-03-16T07:33:43.668Z,98646.88
2023-03-16T07:36:14.403Z,98653.56
2023-03-16T07:38:46.489Z,98660.28
2023-03-16T07:41:14.074Z,98665.25
2023-03-16T07:43:41.142Z,98658.44
2023-03-16T07:46:10.550Z,98661.19
2023-03-16T07:48:37.401Z,98660.59
2023-03-16T07:51:03.921Z,98668.97
2023-03-16T07:53:30.931Z,98668.38
2023-03-16T07:56:17.654Z,98676.75
2023-03-16T07:58:47.143Z,98675.13
2023-03-16T08:01:13.798Z,98680.69
2023-03-16T08:03:40.434Z,98670.19
2023-03-16T08:06:07.079Z,98662.78
2023-03-16T08:08:35.176Z,98656.50
2023-03-16T08:11:01.790Z,98655.38
2023-03-16T08:13:43.803Z,98652.09
2023-03-16T08:16:10.590Z,98656.44
2023-03-16T08:18:39.496Z,98655.19
2023-03-16T08:21:06.675Z,98660.31
2023-03-16T08:23:33.831Z,98655.00
2023-03-16T08:26:01.101Z,98654.28
2023-03-16T08:28:27.984Z,98663.38
2023-03-16T08:30:58.453Z,98654.41
2023-03-16T08:33:46.865Z,98647.66
2023-03-16T08:36:16.729Z,98644.81
2023-03-16T08:39:03.749Z,98642.19
2023-03-16T08:41:35.285Z,98640.97
2023-03-16T08:44:07.748Z,98639.41
2023-03-16T08:46:34.491Z,98642.13
2023-03-16T08:49:02.734Z,98648.94
2023-03-16T08:51:29.520Z,98643.53
2023-03-16T08:53:56.022Z,98658.59
2023-03-16T08:56:22.895Z,98645.09
2023-03-16T08:58:50.604Z,98637.75
2023-03-16T09:01:19.551Z,98635.09
2023-03-16T09:03:46.526Z,98643.69
2023-03-16T09:06:15.684Z,98640.97
2023-03-16T09:08:44.314Z,98640.22
2023-03-16T09:11:17.104Z,98630.19
2023-03-16T09:13:44.628Z,98622.53
2023-03-16T09:16:13.825Z,98621.06
2023-03-16T09:18:41.162Z,98614.84
2023-03-16T09:21:10.365Z,98621.75
2023-03-16T09:23:37.611Z,98616.53
2023-03-16T09:26:07.437Z,98619.53
2023-03-16T09:28:36.036Z,98610.25
2023-03-16T09:31:03.304Z,98605.16
2023-03-16T09:33:32.045Z,98612.16
2023-03-16T09:35:59.948Z,98609.47
2023-03-16T09:38:26.820Z,98612.09
2023-03-16T09:41:06.657Z,98614.50
2023-03-16T09:43:51.689Z,98601.28
2023-03-16T09:46:25.574Z,98601.19
2023-03-16T09:48:53.787Z,98611.91
2023-03-16T09:51:32.472Z,98588.66
2023-03-16T09:54:02.792Z,98590.16
2023-03-16T09:56:36.617Z,98590.22
2023-03-16T09:59:11.797Z,98590.59
2023-03-16T10:01:44.002Z,98585.31
2023-03-16T10:04:32.285Z,98584.28
2023-03-16T10:07:20.063Z,98583.44
2023-03-16T10:10:05.380Z,98593.84
2023-03-16T10:12:41.815Z,98588.56
2023-03-16T10:15:18.413Z,98583.69
2023-03-16T10:18:13.483Z,98579.00
2023-03-16T10:20:41.881Z,98584.72
2023-03-16T10:23:18.373Z,98583.81
2023-03-16T10:25:48.961Z,98583.38
2023-03-16T10:28:31.989Z,98582.84
2023-03-16T10:31:00.713Z,98580.63
2023-03-16T10:33:36.487Z,98584.06
2023-03-16T10:36:34.506Z,98577.16
2023-03-16T10:39:07.823Z,98570.84
2023-03-16T10:41:37.283Z,98570.22
2023-03-16T10:44:11.994Z,98571.47
2023-03-16T10:46:41.850Z,98576.94
2023-03-16T10:49:44.302Z,98570.44
2023-03-16T10:52:29.666Z,98566.34
2023-03-16T10:55:00.937Z,98558.81
2023-03-16T10:57:27.367Z,98565.38
2023-03-16T10:59:57.578Z,98557.56
2023-03-16T11:02:31.786Z,98555.44
2023-03-16T11:04:58.603Z,98544.25
2023-03-16T11:07:25.584Z,98528.53
2023-03-16T11:09:53.792Z,98533.97
2023-03-16T11:12:41.417Z,98532.22
2023-03-16T11:15:25.089Z,98532.53
2023-03-16T11:17:55.150Z,98538.13
2023-03-16T11:20:28.532Z,98533.50
2023-03-16T11:22:56.229Z,98529.91
2023-03-16T11:25:46.991Z,98535.22
2023-03-16T11:28:24.055Z,98532.16
2023-03-16T11:31:10.080Z,98526.69
2023-03-16T11:33:37.960Z,98532.44
2023-03-16T11:36:20.447Z,98525.31
2023-03-16T11:38:58.936Z,98506.69
2023-03-16T11:41:32.120Z,98502.19
2023-03-16T11:44:25.003Z,98509.47
2023-03-16T11:47:13.322Z,98491.81
2023-03-16T11:50:11.731Z,98486.25
2023-03-16T11:52:57.414Z,98487.28
2023-03-16T11:56:08.215Z,98493.88
2023-03-16T11:58:51.592Z,98491.38
2023-03-16T12:01:20.788Z,98476.53
2023-03-16T12:04:01.911Z,98480.59
2023-03-16T12:06:41.472Z,98471.25
2023-03-16T12:09:18.646Z,98470.00
2023-03-16T12:12:11.863Z,98467.50
2023-03-16T12:14:59.638Z,98468.97
2023-03-16T12:17:31.346Z,98459.56
2023-03-16T12:20:14.011Z,98458.84
2023-03-16T12:22:52.196Z,98463.63
2023-03-16T12:25:22.440Z,98455.47
2023-03-16T12:28:00.351Z,98451.31
2023-03-16T12:30:43.846Z,98440.09
2023-03-16T12:33:10.303Z,98437.06
2023-03-16T12:35:45.084Z,98423.28
2023-03-16T12:38:29.977Z,98415.88
2023-03-16T12:41:11.860Z,98414.88
2023-03-16T12:43:52.831Z,98400.19
2023-03-16T12:46:36.298Z,98406.03
2023-03-16T12:49:06.869Z,98400.00
2023-03-16T12:51:43.909Z,98402.41
2023-03-16T12:54:22.745Z,98397.91
2023-03-16T12:56:51.595Z,98391.81
2023-03-16T12:59:21.035Z,98397.03
2023-03-16T13:01:53.574Z,98393.31
2023-03-16T13:04:29.442Z,98394.59
2023-03-16T13:07:16.524Z,98385.69
2023-03-16T13:10:10.099Z,98382.75
2023-03-16T13:12:40.629Z,98382.03
2023-03-16T13:15:23.467Z,98377.91
2023-03-16T13:18:03.392Z,98381.84
2023-03-16T13:20:32.813Z,98380.34
2023-03-16T13:23:24.007Z,98380.22
2023-03-16T13:26:12.730Z,98366.28
2023-03-16T13:28:39.310Z,98369.31
2023-03-16T13:31:21.582Z,98368.28
2023-03-16T13:33:49.483Z,98368.88
2023-03-16T13:36:17.525Z,98364.38
2023-03-16T13:38:44.644Z,98365.59
2023-03-16T13:41:14.218Z,98361.81
2023-03-16T13:43:44.095Z,98360.94
2023-03-16T13:46:15.736Z,98358.59
2023-03-16T13:48:42.643Z,98353.03
2023-03-16T13:51:22.564Z,98358.47
2023-03-16T13:53:50.697Z,98359.78
2023-03-16T13:56:23.773Z,98347.16
2023-03-16T13:58:52.351Z,98361.13
2023-03-16T14:01:25.317Z,98359.38
2023-03-16T14:03:53.605Z,98353.16
2023-03-16T14:06:28.670Z,98355.88
2023-03-16T14:09:05.451Z,98352.28
2023-03-16T14:11:32.045Z,98344.78
2023-03-16T14:14:02.017Z,98351.19
2023-03-16T14:16:31.857Z,98340.75
2023-03-16T14:19:02.626Z,98342.22
2023-03-16T14:21:31.854Z,98348.72
2023-03-16T14:24:02.046Z,98347.19
2023-03-16T14:26:40.964Z,98343.63
2023-03-16T14:29:28.340Z,98341.06
2023-03-16T14:31:55.417Z,98347.31
2023-03-16T14:34:36.228Z,98348.25
2023-03-16T14:37:15.754Z,98346.38
2023-03-16T14:39:42.761Z,98336.06
2023-03-16T14:42:24.257Z,98345.53
2023-03-16T14:44:50.992Z,98344.97
2023-03-16T14:47:25.013Z,98343.06
2023-03-16T14:49:53.290Z,98329.69
2023-03-16T14:52:27.118Z,98338.69
2023-03-16T14:54:55.221Z,98334.69
2023-03-16T14:57:22.382Z,98321.38
2023-03-16T14:59:48.843Z,98321.22
2023-03-16T15:02:20.362Z,98330.50
2023-03-16T15:04:48.372Z,98331.97
2023-03-16T15:07:25.017Z,98330.56
2023-03-16T15:09:53.897Z,98338.28
2023-03-16T15:12:21.757Z,98328.16
2023-03-16T15:15:06.909Z,98323.94
2023-03-16T15:17:33.605Z,98318.88
2023-03-16T15:20:00.161Z,98313.16
2023-03-16T15:22:32.305Z,98313.78
2023-03-16T15:25:01.491Z,98309.25
2023-03-16T15:27:32.788Z,98300.91
2023-03-16T15:29:59.550Z,98297.03
2023-03-16T15:32:26.305Z,98300.31
2023-03-16T15:34:52.903Z,98292.28
2023-03-16T15:37:20.342Z,98291.84
2023-03-16T15:39:47.326Z,98290.44
2023-03-16T15:42:18.736Z,98292.94
2023-03-16T15:44:46.588Z,98288.69
2023-03-16T15:47:13.289Z,98289.09
2023-03-16T15:49:47.260Z,98287.06
2023-03-16T15:52:32.488Z,98286.25
2023-03-16T15:55:04.358Z,98280.78
2023-03-16T15:57:31.961Z,98280.59
2023-03-16T15:59:59.264Z,98291.56
2023-03-16T16:02:29.814Z,98284.88
2023-03-16T16:04:57.074Z,98287.09
2023-03-16T16:07:23.971Z,98286.03
2023-03-16T16:09:51.111Z,98290.31
2023-03-16T16:12:19.638Z,98287.25
2023-03-16T16:14:46.221Z,98282.38
2023-03-16T16:17:36.629Z,98281.97
2023-03-16T16:20:22.900Z,98273.19
2023-03-16T16:22:51.931Z,98272.81
2023-03-16T16:25:21.328Z,98274.41
2023-03-16T16:27:48.117Z,98277.44
2023-03-16T16:30:21.898Z,98276.84
2023-03-16T16:32:49.167Z,98266.66
2023-03-16T16:35:24.023Z,98272.34
2023-03-16T16:37:51.230Z,98280.41
2023-03-16T16:40:23.337Z,98286.28
2023-03-16T16:42:52.961Z,98280.81
2023-03-16T16:45:23.327Z,98278.78
2023-03-16T16:47:52.226Z,98279.94
2023-03-16T16:50:23.386Z,98280.09
2023-03-16T16:52:50.562Z,98285.69
2023-03-16T16:55:18.100Z,98286.72
2023-03-16T16:57:45.430Z,98283.59
2023-03-16T17:00:30.242Z,98285.00
2023-03-16T17:02:58.512Z,98282.09
2023-03-16T17:05:29.930Z,98282.47
2023-03-16T17:07:56.589Z,98280.47
2023-03-16T17:10:27.170Z,98277.09
2023-03-16T17:12:56.836Z,98282.22
2023-03-16T17:15:27.907Z,98276.97
2023-03-16T17:18:02.251Z,98275.13
2023-03-16T17:20:30.005Z,98269.84
2023-03-16T17:22:58.680Z,98273.06
2023-03-16T17:25:25.708Z,98267.22
2023-03-16T17:27:54.517Z,98263.03
2023-03-16T17:30:25.281Z,98259.34
2023-03-16T17:32:53.700Z,98268.16
2023-03-16T17:35:20.649Z,98262.94
2023-03-16T17:37:47.867Z,98267.75
2023-03-16T17:40:20.220Z,98269.81
2023-03-16T17:42:47.777Z,98267.47
2023-03-16T17:45:20.866Z,98263.19
2023-03-16T17:47:48.140Z,98260.91
2023-03-16T17:50:24.492Z,98263.41
2023-03-16T17:52:52.861Z,98274.03
2023-03-16T17:55:22.662Z,98270.72
2023-03-16T17:57:53.526Z,98270.50
2023-03-16T18:00:23.576Z,98272.03
2023-03-16T18:02:56.078Z,98259.63
2023-03-16T18:05:31.180Z,98255.44
2023-03-16T18:08:20.502Z,98258.41
2023-03-16T18:10:49.961Z,98255.50
2023-03-16T18:13:21.099Z,98253.56
2023-03-16T18:15:48.533Z,98251.13
2023-03-16T18:18:23.561Z,98248.31
2023-03-16T18:20:52.055Z,98260.44
2023-03-16T18:23:21.422Z,98257.34
2023-03-16T18:25:49.982Z,98253.19
2023-03-16T18:28:18.011Z,98251.06
2023-03-16T18:30:47.511Z,98242.75
2023-03-16T18:33:27.434Z,98249.22
2023-03-16T18:35:56.894Z,98245.09
2023-03-16T18:38:31.075Z,98235.97
2023-03-16T18:41:00.652Z,98242.09
2023-03-16T18:43:27.855Z,98245.06
2023-03-16T18:45:55.090Z,98253.56
2023-03-16T18:48:31.540Z,98251.44
2023-03-16T18:50:58.707Z,98243.19
2023-03-16T18:53:26.593Z,98245.31
2023-03-16T18:55:55.061Z,98249.09
2023-03-16T18:58:24.620Z,98247.28
2023-03-16T19:00:57.528Z,98253.47
2023-03-16T19:03:30.266Z,98257.63
2023-03-16T19:05:58.600Z,98260.78
2023-03-16T19:08:26.922Z,98257.19
2023-03-16T19:10:56.965Z,98258.47
2023-03-16T19:13:24.505Z,98248.03
2023-03-16T19:15:53.048Z,98250.66
2023-03-16T19:18:19.639Z,98250.16
2023-03-16T19:20:50.165Z,98242.31
2023-03-16T19:23:22.886Z,98243.97
2023-03-16T19:25:50.798Z,98242.19
2023-03-16T19:28:36.624Z,98235.81
2023-03-16T19:31:13.589Z,98238.13
2023-03-16T19:33:40.033Z,98232.56
2023-03-16T19:36:11.554Z,98237.47
2023-03-16T19:38:37.997Z,98236.00
2023-03-16T19:41:05.182Z,98241.88
2023-03-16T19:43:31.709Z,98232.09
2023-03-16T19:45:58.193Z,98221.75
2023-03-16T19:48:32.958Z,98227.66
2023-03-16T19:51:00.463Z,98226.50
2023-03-16T19:53:27.462Z,98235.66
2023-03-16T19:55:54.522Z,98232.72
2023-03-16T19:58:30.145Z,98231.91
2023-03-16T20:00:57.116Z,98234.00
2023-03-16T20:03:23.758Z,98224.84
2023-03-16T20:05:50.327Z,98220.28
2023-03-16T20:08:26.532Z,98226.63
2023-03-16T20:11:06.486Z,98215.88
2023-03-16T20:13:34.760Z,98216.38
2023-03-16T20:16:01.480Z,98210.97
2023-03-16T20:18:29.326Z,98206.56
2023-03-16T20:20:55.761Z,98215.72
2023-03-16T20:23:26.245Z,98212.44
2023-03-16T20:26:01.943Z,98219.59
2023-03-16T20:28:36.986Z,98214.19
2023-03-16T20:31:07.865Z,98206.69
2023-03-16T20:33:34.374Z,98205.09
2023-03-16T20:36:01.038Z,98204.44
2023-03-16T20:38:27.570Z,98204.75
2023-03-16T20:40:54.532Z,98206.72
2023-03-16T20:43:30.091Z,98207.34
2023-03-16T20:45:58.953Z,98204.19
2023-03-16T20:48:27.364Z,98203.06
2023-03-16T20:50:54.991Z,98190.34
2023-03-16T20:53:22.390Z,98192.84
2023-03-16T20:55:50.286Z,98197.41
2023-03-16T20:58:29.150Z,98187.44
2023-03-16T21:01:00.935Z,98193.16
2023-03-16T21:03:30.806Z,98194.47
2023-03-16T21:05:59.804Z,98196.72
2023-03-16T21:08:27.146Z,98196.69
2023-03-16T21:10:56.149Z,98189.03
2023-03-16T21:13:31.848Z,98185.31
2023-03-16T21:16:01.511Z,98183.34
2023-03-16T21:18:29.123Z,98174.88
2023-03-16T21:20:56.163Z,98179.13
2023-03-16T21:23:23.872Z,98178.47
2023-03-16T21:25:54.721Z,98181.19
2023-03-16T21:28:23.184Z,98180.03
2023-03-16T21:30:52.862Z,98176.63
2023-03-16T21:33:53.810Z,98169.81
2023-03-16T21:36:24.444Z,98175.16
2023-03-16T21:38:51.618Z,98171.72
2023-03-16T21:41:18.815Z,98175.66
2023-03-16T21:43:46.961Z,98176.16
2023-03-16T21:46:24.399Z,98178.97
2023-03-16T21:48:54.643Z,98176.78
2023-03-16T21:51:31.216Z,98171.09
2023-03-16T21:53:58.095Z,98159.97
2023-03-16T21:56:26.107Z,98149.53
2023-03-16T21:58:54.025Z,98151.19
2023-03-16T22:01:31.557Z,98151.53
2023-03-16T22:04:02.657Z,98144.50
2023-03-16T22:06:29.825Z,98138.78
2023-03-16T22:08:59.566Z,98136.66
2023-03-16T22:11:28.511Z,98142.41
2023-03-16T22:13:56.527Z,98129.47
2023-03-16T22:16:25.554Z,98135.03
2023-03-16T22:18:56.311Z,98127.34
2023-03-16T22:21:29.191Z,98124.25
2023-03-16T22:23:56.998Z,98130.47
2023-03-16T22:26:23.807Z,98133.56
2023-03-16T22:28:53.555Z,98133.25
2023-03-16T22:31:34.607Z,98125.72
2023-03-16T22:34:03.050Z,98113.66
2023-03-16T22:36:31.526Z,98113.78
2023-03-16T22:39:12.198Z,98112.66
2023-03-16T22:41:38.748Z,98114.28
2023-03-16T22:44:05.540Z,98121.00
2023-03-16T22:46:32.069Z,98113.16
2023-03-16T22:48:58.622Z,98111.34
2023-03-16T22:51:37.717Z,98110.38
2023-03-16T22:54:08.959Z,98108.56
2023-03-16T22:56:35.745Z,98108.75
2023-03-16T22:59:06.969Z,98102.53
2023-03-16T23:01:44.612Z,98095.50
2023-03-16T23:04:23.034Z,98098.28
2023-03-16T23:06:52.631Z,98102.72
2023-03-16T23:09:21.806Z,98105.66
2023-03-16T23:11:53.789Z,98104.84
2023-03-16T23:14:27.182Z,98102.03
2023-03-16T23:16:53.960Z,98104.97
2023-03-16T23:19:25.110Z,98097.97
2023-03-16T23:21:54.661Z,98107.25
2023-03-16T23:24:22.024Z,98099.28
2023-03-16T23:26:49.741Z,98103.19
2023-03-16T23:29:16.580Z,98098.78
2023-03-16T23:31:43.068Z,98091.59
2023-03-16T23:34:11.793Z,98089.97
2023-03-16T23:36:38.991Z,98093.06
2023-03-16T23:39:06.093Z,98087.34
2023-03-16T23:41:33.730Z,98084.56
2023-03-16T23:44:01.380Z,98081.97
2023-03-16T23:46:29.505Z,98090.47
2023-03-16T23:48:58.486Z,98085.06
2023-03-16T23:51:31.374Z,98084.56
2023-03-16T23:53:58.483Z,98088.00
2023-03-16T23:56:26.141Z,98086.06
2023-03-16T23:58:54.198Z,98082.31
